sensor_id;sensor_type;location;lat;lon;timestamp;P1;durP1;ratioP1;P2;durP2;ratioP2
25922;SDS011;13725;51.170;4.442;2023-04-12T00:01:02;3.60;;;1.35;;
25922;SDS011;13725;51.170;4.442;2023-04-12T00:03:28;3.75;;;1.20;;
25922;SDS011;13725;51.170;4.442;2023-04-12T00:05:54;5.30;;;1.45;;
25922;SDS011;13725;51.170;4.442;2023-04-12T00:08:21;6.03;;;1.20;;
25922;SDS011;13725;51.170;4.442;2023-04-12T00:10:57;5.32;;;1.33;;
25922;SDS011;13725;51.170;4.442;2023-04-12T00:13:24;2.50;;;1.00;;
25922;SDS011;13725;51.170;4.442;2023-04-12T00:15:50;7.55;;;2.42;;
25922;SDS011;13725;51.170;4.442;2023-04-12T00:18:16;4.03;;;1.55;;
25922;SDS011;13725;51.170;4.442;2023-04-12T00:20:41;3.78;;;1.27;;
25922;SDS011;13725;51.170;4.442;2023-04-12T00:23:07;5.30;;;1.40;;
25922;SDS011;13725;51.170;4.442;2023-04-12T00:25:37;1.42;;;0.90;;
25922;SDS011;13725;51.170;4.442;2023-04-12T00:28:03;5.00;;;1.20;;
25922;SDS011;13725;51.170;4.442;2023-04-12T00:30:30;5.65;;;1.02;;
25922;SDS011;13725;51.170;4.442;2023-04-12T00:32:57;3.83;;;1.00;;
25922;SDS011;13725;51.170;4.442;2023-04-12T00:35:24;2.45;;;1.15;;
25922;SDS011;13725;51.170;4.442;2023-04-12T00:37:51;2.08;;;1.00;;
25922;SDS011;13725;51.170;4.442;2023-04-12T00:40:17;3.53;;;1.30;;
25922;SDS011;13725;51.170;4.442;2023-04-12T00:42:42;3.95;;;1.50;;
25922;SDS011;13725;51.170;4.442;2023-04-12T00:45:08;3.55;;;1.35;;
25922;SDS011;13725;51.170;4.442;2023-04-12T00:47:35;7.20;;;2.00;;
25922;SDS011;13725;51.170;4.442;2023-04-12T00:50:02;3.22;;;1.27;;
25922;SDS011;13725;51.170;4.442;2023-04-12T00:52:28;2.08;;;1.45;;
25922;SDS011;13725;51.170;4.442;2023-04-12T00:54:58;2.88;;;1.33;;
25922;SDS011;13725;51.170;4.442;2023-04-12T00:57:29;4.28;;;1.10;;
25922;SDS011;13725;51.170;4.442;2023-04-12T01:00:01;6.03;;;1.58;;
25922;SDS011;13725;51.170;4.442;2023-04-12T01:02:32;5.80;;;2.03;;
25922;SDS011;13725;51.170;4.442;2023-04-12T01:04:58;4.93;;;1.33;;
25922;SDS011;13725;51.170;4.442;2023-04-12T01:10:26;4.65;;;1.63;;
25922;SDS011;13725;51.170;4.442;2023-04-12T01:13:08;5.43;;;1.30;;
25922;SDS011;13725;51.170;4.442;2023-04-12T01:15:38;4.03;;;1.20;;
25922;SDS011;13725;51.170;4.442;2023-04-12T01:18:18;3.97;;;1.20;;
25922;SDS011;13725;51.170;4.442;2023-04-12T01:20:56;4.65;;;1.38;;
25922;SDS011;13725;51.170;4.442;2023-04-12T01:26:45;3.25;;;1.33;;
25922;SDS011;13725;51.170;4.442;2023-04-12T01:29:13;4.22;;;1.10;;
25922;SDS011;13725;51.170;4.442;2023-04-12T01:31:52;4.40;;;1.60;;
25922;SDS011;13725;51.170;4.442;2023-04-12T01:34:22;3.22;;;1.60;;
25922;SDS011;13725;51.170;4.442;2023-04-12T01:36:50;2.97;;;1.40;;
25922;SDS011;13725;51.170;4.442;2023-04-12T01:39:17;2.00;;;1.02;;
25922;SDS011;13725;51.170;4.442;2023-04-12T01:41:42;4.68;;;1.40;;
25922;SDS011;13725;51.170;4.442;2023-04-12T01:44:16;2.80;;;1.50;;
25922;SDS011;13725;51.170;4.442;2023-04-12T01:46:44;1.27;;;1.02;;
25922;SDS011;13725;51.170;4.442;2023-04-12T01:49:13;3.13;;;1.38;;
25922;SDS011;13725;51.170;4.442;2023-04-12T01:54:22;5.53;;;1.35;;
25922;SDS011;13725;51.170;4.442;2023-04-12T01:56:53;11.65;;;1.80;;
25922;SDS011;13725;51.170;4.442;2023-04-12T01:59:24;6.03;;;1.38;;
25922;SDS011;13725;51.170;4.442;2023-04-12T02:01:54;3.05;;;1.20;;
25922;SDS011;13725;51.170;4.442;2023-04-12T02:04:20;3.97;;;1.83;;
25922;SDS011;13725;51.170;4.442;2023-04-12T02:06:49;5.15;;;1.60;;
25922;SDS011;13725;51.170;4.442;2023-04-12T02:09:15;6.07;;;1.38;;
25922;SDS011;13725;51.170;4.442;2023-04-12T02:11:40;4.28;;;1.98;;
25922;SDS011;13725;51.170;4.442;2023-04-12T02:14:10;2.75;;;1.50;;
25922;SDS011;13725;51.170;4.442;2023-04-12T02:16:36;3.83;;;1.85;;
25922;SDS011;13725;51.170;4.442;2023-04-12T02:19:03;3.10;;;1.48;;
25922;SDS011;13725;51.170;4.442;2023-04-12T02:21:38;3.53;;;1.33;;
25922;SDS011;13725;51.170;4.442;2023-04-12T02:24:08;8.60;;;1.42;;
25922;SDS011;13725;51.170;4.442;2023-04-12T02:26:35;4.15;;;1.30;;
25922;SDS011;13725;51.170;4.442;2023-04-12T02:29:06;3.75;;;1.25;;
25922;SDS011;13725;51.170;4.442;2023-04-12T02:31:34;2.85;;;1.50;;
25922;SDS011;13725;51.170;4.442;2023-04-12T02:34:01;6.60;;;1.35;;
25922;SDS011;13725;51.170;4.442;2023-04-12T02:36:28;5.50;;;1.70;;
25922;SDS011;13725;51.170;4.442;2023-04-12T02:38:54;7.50;;;1.70;;
25922;SDS011;13725;51.170;4.442;2023-04-12T02:41:21;3.15;;;1.17;;
25922;SDS011;13725;51.170;4.442;2023-04-12T02:43:48;4.88;;;1.42;;
25922;SDS011;13725;51.170;4.442;2023-04-12T02:46:14;4.43;;;1.25;;
25922;SDS011;13725;51.170;4.442;2023-04-12T02:48:57;4.85;;;1.40;;
25922;SDS011;13725;51.170;4.442;2023-04-12T02:51:31;5.35;;;1.40;;
25922;SDS011;13725;51.170;4.442;2023-04-12T02:53:56;5.82;;;1.60;;
25922;SDS011;13725;51.170;4.442;2023-04-12T02:56:25;4.38;;;1.60;;
25922;SDS011;13725;51.170;4.442;2023-04-12T02:59:00;4.13;;;1.40;;
25922;SDS011;13725;51.170;4.442;2023-04-12T03:01:39;3.35;;;1.60;;
25922;SDS011;13725;51.170;4.442;2023-04-12T03:04:16;4.28;;;1.48;;
25922;SDS011;13725;51.170;4.442;2023-04-12T03:06:49;3.72;;;1.38;;
25922;SDS011;13725;51.170;4.442;2023-04-12T03:09:23;8.70;;;1.77;;
25922;SDS011;13725;51.170;4.442;2023-04-12T03:11:49;6.38;;;2.13;;
25922;SDS011;13725;51.170;4.442;2023-04-12T03:14:15;2.97;;;1.02;;
25922;SDS011;13725;51.170;4.442;2023-04-12T03:16:42;3.65;;;1.40;;
25922;SDS011;13725;51.170;4.442;2023-04-12T03:19:13;5.93;;;1.48;;
25922;SDS011;13725;51.170;4.442;2023-04-12T03:21:41;2.60;;;1.38;;
25922;SDS011;13725;51.170;4.442;2023-04-12T03:24:07;4.45;;;1.33;;
25922;SDS011;13725;51.170;4.442;2023-04-12T03:26:33;4.53;;;1.17;;
25922;SDS011;13725;51.170;4.442;2023-04-12T03:29:09;6.57;;;1.30;;
25922;SDS011;13725;51.170;4.442;2023-04-12T03:31:36;5.10;;;1.70;;
25922;SDS011;13725;51.170;4.442;2023-04-12T03:34:06;3.55;;;1.25;;
25922;SDS011;13725;51.170;4.442;2023-04-12T03:36:33;5.20;;;1.50;;
25922;SDS011;13725;51.170;4.442;2023-04-12T03:39:09;5.53;;;1.45;;
25922;SDS011;13725;51.170;4.442;2023-04-12T03:41:36;8.75;;;1.80;;
25922;SDS011;13725;51.170;4.442;2023-04-12T03:44:03;3.38;;;1.20;;
25922;SDS011;13725;51.170;4.442;2023-04-12T03:46:31;4.00;;;1.75;;
25922;SDS011;13725;51.170;4.442;2023-04-12T03:49:02;1.75;;;1.13;;
25922;SDS011;13725;51.170;4.442;2023-04-12T03:51:28;3.70;;;1.40;;
25922;SDS011;13725;51.170;4.442;2023-04-12T03:53:59;1.65;;;1.15;;
25922;SDS011;13725;51.170;4.442;2023-04-12T03:56:27;3.65;;;1.30;;
25922;SDS011;13725;51.170;4.442;2023-04-12T03:58:55;4.20;;;1.50;;
25922;SDS011;13725;51.170;4.442;2023-04-12T04:01:21;6.97;;;2.03;;
25922;SDS011;13725;51.170;4.442;2023-04-12T04:03:48;3.83;;;1.20;;
25922;SDS011;13725;51.170;4.442;2023-04-12T04:06:24;5.00;;;1.25;;
25922;SDS011;13725;51.170;4.442;2023-04-12T04:08:53;2.42;;;1.30;;
25922;SDS011;13725;51.170;4.442;2023-04-12T04:11:20;4.47;;;2.00;;
25922;SDS011;13725;51.170;4.442;2023-04-12T04:13:49;3.05;;;1.23;;
25922;SDS011;13725;51.170;4.442;2023-04-12T04:16:18;5.68;;;1.20;;
25922;SDS011;13725;51.170;4.442;2023-04-12T04:18:44;4.70;;;2.83;;
25922;SDS011;13725;51.170;4.442;2023-04-12T04:21:12;2.55;;;1.10;;
25922;SDS011;13725;51.170;4.442;2023-04-12T04:23:40;3.83;;;1.58;;
25922;SDS011;13725;51.170;4.442;2023-04-12T04:26:09;4.13;;;1.13;;
25922;SDS011;13725;51.170;4.442;2023-04-12T04:28:40;3.95;;;1.15;;
25922;SDS011;13725;51.170;4.442;2023-04-12T04:31:09;2.08;;;0.95;;
25922;SDS011;13725;51.170;4.442;2023-04-12T04:33:38;4.45;;;1.08;;
25922;SDS011;13725;51.170;4.442;2023-04-12T04:36:06;3.05;;;1.35;;
25922;SDS011;13725;51.170;4.442;2023-04-12T04:38:33;5.80;;;1.33;;
25922;SDS011;13725;51.170;4.442;2023-04-12T04:41:07;3.78;;;1.30;;
25922;SDS011;13725;51.170;4.442;2023-04-12T04:43:49;2.22;;;1.25;;
25922;SDS011;13725;51.170;4.442;2023-04-12T04:46:17;5.65;;;1.38;;
25922;SDS011;13725;51.170;4.442;2023-04-12T04:48:45;2.95;;;1.38;;
25922;SDS011;13725;51.170;4.442;2023-04-12T04:51:12;4.90;;;1.40;;
25922;SDS011;13725;51.170;4.442;2023-04-12T04:53:39;2.30;;;1.48;;
25922;SDS011;13725;51.170;4.442;2023-04-12T04:56:06;3.42;;;1.40;;
25922;SDS011;13725;51.170;4.442;2023-04-12T04:58:33;5.47;;;1.58;;
25922;SDS011;13725;51.170;4.442;2023-04-12T05:00:59;1.85;;;1.30;;
25922;SDS011;13725;51.170;4.442;2023-04-12T05:03:27;4.82;;;1.50;;
25922;SDS011;13725;51.170;4.442;2023-04-12T05:05:54;6.03;;;1.70;;
25922;SDS011;13725;51.170;4.442;2023-04-12T05:08:21;2.03;;;1.20;;
25922;SDS011;13725;51.170;4.442;2023-04-12T05:10:51;7.90;;;1.40;;
25922;SDS011;13725;51.170;4.442;2023-04-12T05:13:18;4.13;;;1.42;;
25922;SDS011;13725;51.170;4.442;2023-04-12T05:15:45;7.13;;;1.77;;
25922;SDS011;13725;51.170;4.442;2023-04-12T05:18:10;3.17;;;1.33;;
25922;SDS011;13725;51.170;4.442;2023-04-12T05:20:37;3.50;;;1.70;;
25922;SDS011;13725;51.170;4.442;2023-04-12T05:23:03;5.30;;;1.52;;
25922;SDS011;13725;51.170;4.442;2023-04-12T05:25:28;6.50;;;2.50;;
25922;SDS011;13725;51.170;4.442;2023-04-12T05:28:01;9.32;;;2.42;;
25922;SDS011;13725;51.170;4.442;2023-04-12T05:30:28;7.10;;;2.22;;
25922;SDS011;13725;51.170;4.442;2023-04-12T05:32:54;8.93;;;2.30;;
25922;SDS011;13725;51.170;4.442;2023-04-12T05:35:20;9.43;;;2.28;;
25922;SDS011;13725;51.170;4.442;2023-04-12T05:37:47;6.68;;;2.60;;
25922;SDS011;13725;51.170;4.442;2023-04-12T05:40:13;11.10;;;2.58;;
25922;SDS011;13725;51.170;4.442;2023-04-12T05:42:39;6.32;;;2.15;;
25922;SDS011;13725;51.170;4.442;2023-04-12T05:45:05;9.80;;;2.42;;
25922;SDS011;13725;51.170;4.442;2023-04-12T05:47:34;10.02;;;2.58;;
25922;SDS011;13725;51.170;4.442;2023-04-12T05:50:00;7.55;;;2.55;;
25922;SDS011;13725;51.170;4.442;2023-04-12T05:52:26;7.03;;;2.65;;
25922;SDS011;13725;51.170;4.442;2023-04-12T05:54:52;8.75;;;2.83;;
25922;SDS011;13725;51.170;4.442;2023-04-12T05:57:19;12.43;;;2.67;;
25922;SDS011;13725;51.170;4.442;2023-04-12T05:59:47;8.40;;;3.05;;
25922;SDS011;13725;51.170;4.442;2023-04-12T06:02:12;11.38;;;3.17;;
25922;SDS011;13725;51.170;4.442;2023-04-12T06:04:38;9.98;;;2.80;;
25922;SDS011;13725;51.170;4.442;2023-04-12T06:07:05;10.98;;;3.33;;
25922;SDS011;13725;51.170;4.442;2023-04-12T06:09:31;12.50;;;3.08;;
25922;SDS011;13725;51.170;4.442;2023-04-12T06:11:57;10.25;;;3.00;;
25922;SDS011;13725;51.170;4.442;2023-04-12T06:14:23;15.43;;;3.28;;
25922;SDS011;13725;51.170;4.442;2023-04-12T06:16:49;9.20;;;2.95;;
25922;SDS011;13725;51.170;4.442;2023-04-12T06:19:14;11.93;;;4.07;;
25922;SDS011;13725;51.170;4.442;2023-04-12T06:21:41;12.70;;;3.83;;
25922;SDS011;13725;51.170;4.442;2023-04-12T06:24:07;13.90;;;3.85;;
25922;SDS011;13725;51.170;4.442;2023-04-12T06:26:33;10.35;;;3.47;;
25922;SDS011;13725;51.170;4.442;2023-04-12T06:29:00;11.48;;;3.35;;
25922;SDS011;13725;51.170;4.442;2023-04-12T06:31:26;10.68;;;2.92;;
25922;SDS011;13725;51.170;4.442;2023-04-12T06:33:52;13.10;;;3.17;;
25922;SDS011;13725;51.170;4.442;2023-04-12T06:36:18;16.67;;;3.50;;
25922;SDS011;13725;51.170;4.442;2023-04-12T06:38:43;14.73;;;3.72;;
25922;SDS011;13725;51.170;4.442;2023-04-12T06:41:09;8.00;;;3.30;;
25922;SDS011;13725;51.170;4.442;2023-04-12T06:43:35;11.73;;;3.28;;
25922;SDS011;13725;51.170;4.442;2023-04-12T06:46:01;13.57;;;3.70;;
25922;SDS011;13725;51.170;4.442;2023-04-12T06:48:27;10.13;;;3.58;;
25922;SDS011;13725;51.170;4.442;2023-04-12T06:50:54;13.40;;;3.88;;
25922;SDS011;13725;51.170;4.442;2023-04-12T06:53:19;11.07;;;4.13;;
25922;SDS011;13725;51.170;4.442;2023-04-12T06:55:45;14.80;;;4.30;;
25922;SDS011;13725;51.170;4.442;2023-04-12T06:58:11;13.35;;;4.90;;
25922;SDS011;13725;51.170;4.442;2023-04-12T07:00:36;14.95;;;3.90;;
25922;SDS011;13725;51.170;4.442;2023-04-12T07:03:02;13.35;;;3.90;;
25922;SDS011;13725;51.170;4.442;2023-04-12T07:05:28;19.23;;;5.15;;
25922;SDS011;13725;51.170;4.442;2023-04-12T07:07:53;11.55;;;4.38;;
25922;SDS011;13725;51.170;4.442;2023-04-12T07:10:19;16.30;;;3.97;;
25922;SDS011;13725;51.170;4.442;2023-04-12T07:12:45;13.02;;;4.65;;
25922;SDS011;13725;51.170;4.442;2023-04-12T07:15:10;23.90;;;4.55;;
25922;SDS011;13725;51.170;4.442;2023-04-12T07:17:36;9.25;;;3.97;;
25922;SDS011;13725;51.170;4.442;2023-04-12T07:20:02;16.48;;;4.80;;
25922;SDS011;13725;51.170;4.442;2023-04-12T07:22:28;14.50;;;4.50;;
25922;SDS011;13725;51.170;4.442;2023-04-12T07:24:54;14.35;;;5.95;;
25922;SDS011;13725;51.170;4.442;2023-04-12T07:27:19;21.38;;;4.90;;
25922;SDS011;13725;51.170;4.442;2023-04-12T07:29:46;15.07;;;4.00;;
25922;SDS011;13725;51.170;4.442;2023-04-12T07:32:12;24.83;;;4.38;;
25922;SDS011;13725;51.170;4.442;2023-04-12T07:34:37;26.15;;;4.30;;
25922;SDS011;13725;51.170;4.442;2023-04-12T07:37:03;25.38;;;4.72;;
25922;SDS011;13725;51.170;4.442;2023-04-12T07:39:30;17.10;;;3.83;;
25922;SDS011;13725;51.170;4.442;2023-04-12T07:41:56;11.95;;;2.58;;
25922;SDS011;13725;51.170;4.442;2023-04-12T07:44:21;12.88;;;3.40;;
25922;SDS011;13725;51.170;4.442;2023-04-12T07:46:47;16.50;;;3.15;;
25922;SDS011;13725;51.170;4.442;2023-04-12T07:49:13;9.65;;;2.50;;
25922;SDS011;13725;51.170;4.442;2023-04-12T07:51:38;14.77;;;2.60;;
25922;SDS011;13725;51.170;4.442;2023-04-12T07:54:06;8.13;;;3.05;;
25922;SDS011;13725;51.170;4.442;2023-04-12T07:56:34;13.20;;;2.20;;
25922;SDS011;13725;51.170;4.442;2023-04-12T07:59:00;9.77;;;2.15;;
25922;SDS011;13725;51.170;4.442;2023-04-12T08:01:26;12.88;;;2.35;;
25922;SDS011;13725;51.170;4.442;2023-04-12T08:03:52;9.40;;;1.95;;
25922;SDS011;13725;51.170;4.442;2023-04-12T08:06:18;13.63;;;3.00;;
25922;SDS011;13725;51.170;4.442;2023-04-12T08:08:43;11.18;;;2.60;;
25922;SDS011;13725;51.170;4.442;2023-04-12T08:11:09;16.27;;;2.85;;
25922;SDS011;13725;51.170;4.442;2023-04-12T08:13:35;10.50;;;2.00;;
25922;SDS011;13725;51.170;4.442;2023-04-12T08:16:01;15.40;;;2.75;;
25922;SDS011;13725;51.170;4.442;2023-04-12T08:18:27;14.38;;;2.42;;
25922;SDS011;13725;51.170;4.442;2023-04-12T08:20:53;11.30;;;2.50;;
25922;SDS011;13725;51.170;4.442;2023-04-12T08:23:19;16.20;;;2.50;;
25922;SDS011;13725;51.170;4.442;2023-04-12T08:25:46;14.77;;;2.83;;
25922;SDS011;13725;51.170;4.442;2023-04-12T08:28:11;9.68;;;2.80;;
25922;SDS011;13725;51.170;4.442;2023-04-12T08:30:37;12.43;;;2.70;;
25922;SDS011;13725;51.170;4.442;2023-04-12T08:33:03;18.38;;;3.28;;
25922;SDS011;13725;51.170;4.442;2023-04-12T08:35:28;8.88;;;2.10;;
25922;SDS011;13725;51.170;4.442;2023-04-12T08:37:54;19.38;;;2.88;;
25922;SDS011;13725;51.170;4.442;2023-04-12T08:40:21;17.77;;;2.80;;
25922;SDS011;13725;51.170;4.442;2023-04-12T08:42:46;19.05;;;3.33;;
25922;SDS011;13725;51.170;4.442;2023-04-12T08:45:12;12.68;;;2.20;;
25922;SDS011;13725;51.170;4.442;2023-04-12T08:47:39;12.68;;;2.60;;
25922;SDS011;13725;51.170;4.442;2023-04-12T08:50:08;15.07;;;3.20;;
25922;SDS011;13725;51.170;4.442;2023-04-12T08:52:37;11.18;;;2.50;;
25922;SDS011;13725;51.170;4.442;2023-04-12T08:55:06;12.35;;;2.80;;
25922;SDS011;13725;51.170;4.442;2023-04-12T08:57:36;17.33;;;3.42;;
25922;SDS011;13725;51.170;4.442;2023-04-12T09:00:05;24.23;;;5.30;;
25922;SDS011;13725;51.170;4.442;2023-04-12T09:02:34;19.48;;;3.25;;
25922;SDS011;13725;51.170;4.442;2023-04-12T09:05:01;13.85;;;2.50;;
25922;SDS011;13725;51.170;4.442;2023-04-12T09:07:26;21.17;;;3.05;;
25922;SDS011;13725;51.170;4.442;2023-04-12T09:09:54;14.32;;;2.80;;
25922;SDS011;13725;51.170;4.442;2023-04-12T09:12:21;14.43;;;3.30;;
25922;SDS011;13725;51.170;4.442;2023-04-12T09:15:03;14.05;;;2.90;;
25922;SDS011;13725;51.170;4.442;2023-04-12T09:17:34;15.13;;;2.50;;
25922;SDS011;13725;51.170;4.442;2023-04-12T09:22:41;17.15;;;3.22;;
25922;SDS011;13725;51.170;4.442;2023-04-12T09:25:11;24.92;;;3.33;;
25922;SDS011;13725;51.170;4.442;2023-04-12T09:27:44;12.02;;;2.33;;
25922;SDS011;13725;51.170;4.442;2023-04-12T09:30:18;8.95;;;2.55;;
25922;SDS011;13725;51.170;4.442;2023-04-12T09:32:45;14.50;;;2.30;;
25922;SDS011;13725;51.170;4.442;2023-04-12T09:35:13;12.07;;;2.38;;
25922;SDS011;13725;51.170;4.442;2023-04-12T09:37:39;14.82;;;2.35;;
25922;SDS011;13725;51.170;4.442;2023-04-12T09:40:05;13.50;;;2.40;;
25922;SDS011;13725;51.170;4.442;2023-04-12T09:42:33;11.32;;;2.00;;
25922;SDS011;13725;51.170;4.442;2023-04-12T09:45:17;8.75;;;2.00;;
25922;SDS011;13725;51.170;4.442;2023-04-12T09:47:44;14.60;;;2.03;;
25922;SDS011;13725;51.170;4.442;2023-04-12T09:50:18;11.43;;;2.00;;
25922;SDS011;13725;51.170;4.442;2023-04-12T09:52:54;12.75;;;1.90;;
25922;SDS011;13725;51.170;4.442;2023-04-12T09:55:21;13.40;;;2.20;;
25922;SDS011;13725;51.170;4.442;2023-04-12T09:57:49;9.05;;;2.00;;
25922;SDS011;13725;51.170;4.442;2023-04-12T10:00:16;11.85;;;2.22;;
25922;SDS011;13725;51.170;4.442;2023-04-12T10:02:44;7.32;;;2.33;;
25922;SDS011;13725;51.170;4.442;2023-04-12T10:05:15;9.20;;;2.22;;
25922;SDS011;13725;51.170;4.442;2023-04-12T10:07:42;13.25;;;4.03;;
25922;SDS011;13725;51.170;4.442;2023-04-12T10:10:10;12.02;;;2.35;;
25922;SDS011;13725;51.170;4.442;2023-04-12T10:12:37;14.60;;;2.30;;
25922;SDS011;13725;51.170;4.442;2023-04-12T10:15:05;8.73;;;2.13;;
25922;SDS011;13725;51.170;4.442;2023-04-12T10:17:52;14.98;;;2.25;;
25922;SDS011;13725;51.170;4.442;2023-04-12T10:20:19;11.27;;;2.55;;
25922;SDS011;13725;51.170;4.442;2023-04-12T10:22:50;18.10;;;2.08;;
25922;SDS011;13725;51.170;4.442;2023-04-12T10:25:17;15.88;;;2.50;;
25922;SDS011;13725;51.170;4.442;2023-04-12T10:27:44;16.70;;;2.72;;
25922;SDS011;13725;51.170;4.442;2023-04-12T10:30:21;14.00;;;2.28;;
25922;SDS011;13725;51.170;4.442;2023-04-12T10:35:27;14.52;;;2.50;;
25922;SDS011;13725;51.170;4.442;2023-04-12T10:40:23;15.82;;;2.97;;
25922;SDS011;13725;51.170;4.442;2023-04-12T10:42:49;14.68;;;3.58;;
25922;SDS011;13725;51.170;4.442;2023-04-12T10:45:46;20.40;;;2.78;;
25922;SDS011;13725;51.170;4.442;2023-04-12T10:48:35;20.63;;;3.13;;
25922;SDS011;13725;51.170;4.442;2023-04-12T10:51:18;14.63;;;2.35;;
25922;SDS011;13725;51.170;4.442;2023-04-12T10:56:43;21.50;;;3.30;;
25922;SDS011;13725;51.170;4.442;2023-04-12T10:59:24;20.08;;;2.75;;
25922;SDS011;13725;51.170;4.442;2023-04-12T11:04:37;24.67;;;3.75;;
25922;SDS011;13725;51.170;4.442;2023-04-12T11:07:48;13.82;;;2.83;;
25922;SDS011;13725;51.170;4.442;2023-04-12T11:10:37;16.00;;;2.88;;
25922;SDS011;13725;51.170;4.442;2023-04-12T11:13:06;13.68;;;2.47;;
25922;SDS011;13725;51.170;4.442;2023-04-12T11:15:33;12.93;;;2.47;;
25922;SDS011;13725;51.170;4.442;2023-04-12T11:17:59;15.52;;;2.85;;
25922;SDS011;13725;51.170;4.442;2023-04-12T11:20:29;14.02;;;2.38;;
25922;SDS011;13725;51.170;4.442;2023-04-12T11:22:59;11.65;;;2.08;;
25922;SDS011;13725;51.170;4.442;2023-04-12T11:25:27;14.07;;;2.47;;
25922;SDS011;13725;51.170;4.442;2023-04-12T11:27:53;15.30;;;2.50;;
25922;SDS011;13725;51.170;4.442;2023-04-12T11:30:23;11.05;;;1.88;;
25922;SDS011;13725;51.170;4.442;2023-04-12T11:32:50;12.27;;;2.20;;
25922;SDS011;13725;51.170;4.442;2023-04-12T11:35:17;10.75;;;2.55;;
25922;SDS011;13725;51.170;4.442;2023-04-12T11:37:48;13.65;;;2.13;;
25922;SDS011;13725;51.170;4.442;2023-04-12T11:40:14;9.43;;;2.47;;
25922;SDS011;13725;51.170;4.442;2023-04-12T11:42:39;9.68;;;2.17;;
25922;SDS011;13725;51.170;4.442;2023-04-12T11:45:06;15.18;;;2.38;;
25922;SDS011;13725;51.170;4.442;2023-04-12T11:47:34;9.90;;;2.03;;
25922;SDS011;13725;51.170;4.442;2023-04-12T11:50:06;4.88;;;1.40;;
25922;SDS011;13725;51.170;4.442;2023-04-12T11:52:32;4.07;;;1.63;;
25922;SDS011;13725;51.170;4.442;2023-04-12T11:54:59;3.97;;;1.40;;
25922;SDS011;13725;51.170;4.442;2023-04-12T11:57:29;4.38;;;0.85;;
25922;SDS011;13725;51.170;4.442;2023-04-12T11:59:55;3.90;;;1.13;;
25922;SDS011;13725;51.170;4.442;2023-04-12T12:02:23;2.25;;;0.85;;
25922;SDS011;13725;51.170;4.442;2023-04-12T12:04:50;4.72;;;0.95;;
25922;SDS011;13725;51.170;4.442;2023-04-12T12:07:17;4.13;;;0.85;;
25922;SDS011;13725;51.170;4.442;2023-04-12T12:09:43;3.67;;;0.93;;
25922;SDS011;13725;51.170;4.442;2023-04-12T12:12:11;5.60;;;0.70;;
25922;SDS011;13725;51.170;4.442;2023-04-12T12:14:38;1.73;;;0.50;;
25922;SDS011;13725;51.170;4.442;2023-04-12T12:17:10;1.38;;;0.60;;
25922;SDS011;13725;51.170;4.442;2023-04-12T12:19:39;2.80;;;0.80;;
25922;SDS011;13725;51.170;4.442;2023-04-12T12:22:19;3.42;;;0.70;;
25922;SDS011;13725;51.170;4.442;2023-04-12T12:27:12;3.95;;;0.88;;
25922;SDS011;13725;51.170;4.442;2023-04-12T12:29:41;3.42;;;0.95;;
25922;SDS011;13725;51.170;4.442;2023-04-12T12:32:10;4.93;;;1.05;;
25922;SDS011;13725;51.170;4.442;2023-04-12T12:34:39;4.88;;;1.02;;
25922;SDS011;13725;51.170;4.442;2023-04-12T12:37:11;3.03;;;0.90;;
25922;SDS011;13725;51.170;4.442;2023-04-12T12:39:37;3.33;;;1.00;;
25922;SDS011;13725;51.170;4.442;2023-04-12T12:42:04;3.42;;;1.10;;
25922;SDS011;13725;51.170;4.442;2023-04-12T12:44:30;6.90;;;1.67;;
25922;SDS011;13725;51.170;4.442;2023-04-12T12:47:00;5.55;;;0.90;;
25922;SDS011;13725;51.170;4.442;2023-04-12T12:49:27;4.07;;;1.13;;
25922;SDS011;13725;51.170;4.442;2023-04-12T12:51:53;7.90;;;1.30;;
25922;SDS011;13725;51.170;4.442;2023-04-12T12:54:19;4.30;;;0.93;;
25922;SDS011;13725;51.170;4.442;2023-04-12T12:56:45;5.25;;;0.90;;
25922;SDS011;13725;51.170;4.442;2023-04-12T12:59:11;6.55;;;1.00;;
25922;SDS011;13725;51.170;4.442;2023-04-12T13:01:37;4.80;;;1.10;;
25922;SDS011;13725;51.170;4.442;2023-04-12T13:04:02;3.03;;;0.98;;
25922;SDS011;13725;51.170;4.442;2023-04-12T13:06:28;4.22;;;1.02;;
25922;SDS011;13725;51.170;4.442;2023-04-12T13:08:54;3.67;;;1.30;;
25922;SDS011;13725;51.170;4.442;2023-04-12T13:11:19;5.70;;;0.95;;
25922;SDS011;13725;51.170;4.442;2023-04-12T13:13:46;4.60;;;1.02;;
25922;SDS011;13725;51.170;4.442;2023-04-12T13:16:11;8.00;;;1.42;;
25922;SDS011;13725;51.170;4.442;2023-04-12T13:18:37;6.78;;;1.00;;
25922;SDS011;13725;51.170;4.442;2023-04-12T13:21:03;5.85;;;0.80;;
25922;SDS011;13725;51.170;4.442;2023-04-12T13:23:29;5.40;;;0.98;;
25922;SDS011;13725;51.170;4.442;2023-04-12T13:25:55;4.40;;;0.80;;
25922;SDS011;13725;51.170;4.442;2023-04-12T13:28:21;6.25;;;1.00;;
25922;SDS011;13725;51.170;4.442;2023-04-12T13:30:47;3.10;;;0.90;;
25922;SDS011;13725;51.170;4.442;2023-04-12T13:33:12;5.43;;;1.50;;
25922;SDS011;13725;51.170;4.442;2023-04-12T13:35:38;4.45;;;1.70;;
25922;SDS011;13725;51.170;4.442;2023-04-12T13:38:04;6.07;;;1.55;;
25922;SDS011;13725;51.170;4.442;2023-04-12T13:40:30;6.10;;;2.08;;
25922;SDS011;13725;51.170;4.442;2023-04-12T13:42:55;4.63;;;2.30;;
25922;SDS011;13725;51.170;4.442;2023-04-12T13:45:21;3.97;;;2.00;;
25922;SDS011;13725;51.170;4.442;2023-04-12T13:47:47;3.78;;;2.00;;
25922;SDS011;13725;51.170;4.442;2023-04-12T13:50:12;4.40;;;2.05;;
25922;SDS011;13725;51.170;4.442;2023-04-12T13:52:38;5.22;;;2.33;;
25922;SDS011;13725;51.170;4.442;2023-04-12T13:55:04;4.85;;;2.15;;
25922;SDS011;13725;51.170;4.442;2023-04-12T13:57:32;4.70;;;2.20;;
25922;SDS011;13725;51.170;4.442;2023-04-12T13:59:59;5.72;;;2.10;;
25922;SDS011;13725;51.170;4.442;2023-04-12T14:02:25;8.32;;;1.85;;
25922;SDS011;13725;51.170;4.442;2023-04-12T14:04:51;6.47;;;1.02;;
25922;SDS011;13725;51.170;4.442;2023-04-12T14:07:18;7.43;;;1.40;;
25922;SDS011;13725;51.170;4.442;2023-04-12T14:09:44;7.10;;;1.20;;
25922;SDS011;13725;51.170;4.442;2023-04-12T14:12:09;4.80;;;0.93;;
25922;SDS011;13725;51.170;4.442;2023-04-12T14:14:35;6.15;;;1.20;;
25922;SDS011;13725;51.170;4.442;2023-04-12T14:17:01;4.63;;;0.85;;
25922;SDS011;13725;51.170;4.442;2023-04-12T14:19:27;4.82;;;1.02;;
25922;SDS011;13725;51.170;4.442;2023-04-12T14:21:53;3.90;;;0.93;;
25922;SDS011;13725;51.170;4.442;2023-04-12T14:24:19;5.15;;;1.38;;
25922;SDS011;13725;51.170;4.442;2023-04-12T14:26:45;5.18;;;1.50;;
25922;SDS011;13725;51.170;4.442;2023-04-12T14:29:13;7.82;;;1.30;;
25922;SDS011;13725;51.170;4.442;2023-04-12T14:31:39;7.82;;;1.23;;
25922;SDS011;13725;51.170;4.442;2023-04-12T14:34:05;6.97;;;1.73;;
25922;SDS011;13725;51.170;4.442;2023-04-12T14:36:32;5.47;;;1.48;;
25922;SDS011;13725;51.170;4.442;2023-04-12T14:38:59;7.38;;;1.88;;
25922;SDS011;13725;51.170;4.442;2023-04-12T14:41:27;3.58;;;1.17;;
25922;SDS011;13725;51.170;4.442;2023-04-12T14:43:57;5.65;;;0.98;;
25922;SDS011;13725;51.170;4.442;2023-04-12T14:46:24;4.95;;;0.98;;
25922;SDS011;13725;51.170;4.442;2023-04-12T14:48:51;5.97;;;1.08;;
25922;SDS011;13725;51.170;4.442;2023-04-12T14:51:17;6.18;;;1.00;;
25922;SDS011;13725;51.170;4.442;2023-04-12T14:53:43;4.85;;;0.95;;
25922;SDS011;13725;51.170;4.442;2023-04-12T14:56:18;3.13;;;0.70;;
25922;SDS011;13725;51.170;4.442;2023-04-12T14:58:45;4.97;;;0.90;;
25922;SDS011;13725;51.170;4.442;2023-04-12T15:01:11;5.05;;;1.08;;
25922;SDS011;13725;51.170;4.442;2023-04-12T15:03:38;2.28;;;0.60;;
25922;SDS011;13725;51.170;4.442;2023-04-12T15:06:06;7.07;;;1.10;;
25922;SDS011;13725;51.170;4.442;2023-04-12T15:08:33;6.88;;;1.10;;
25922;SDS011;13725;51.170;4.442;2023-04-12T15:11:06;7.85;;;1.27;;
25922;SDS011;13725;51.170;4.442;2023-04-12T15:13:34;9.57;;;1.52;;